Time;durP1;ratioP1;P1;durP2;ratioP2;P2;SDS_P1;SDS_P2;PMS_P1;PMS_P2;Temp;Humidity;BMP_temperature;BMP_pressure;BME280_temperature;BME280_humidity;BME280_pressure;Samples;Min_cycle;Max_cycle;Signal;HPM_P1;HPM_P2
2021/04/29 00:07:08;;;;;;;1999.90;999.90;;;;;;;12.87;48.86;99812.75;15346336;28;20043;-57
2021/04/29 00:14:40;;;;;;;1999.90;999.90;;;;;;;13.05;48.41;99817.91;15363086;29;20043;-55
2021/04/29 00:22:12;;;;;;;1999.90;999.90;;;;;;;13.02;48.91;99811.03;15357959;29;20044;-57
2021/04/29 00:29:44;;;;;;;1999.90;999.90;;;;;;;12.88;49.28;99827.56;15313211;29;20503;-55
2021/04/29 00:37:16;;;;;;;1999.90;999.90;;;;;;;12.77;48.60;99818.13;15356549;29;20063;-56
2021/04/29 00:44:48;;;;;;;1999.90;999.90;;;;;;;12.91;48.86;99819.22;15353935;29;20039;-56
2021/04/29 00:52:20;;;;;;;1999.90;999.90;;;;;;;12.81;49.05;99813.41;15303323;29;20051;-55
2021/04/29 00:59:53;;;;;;;1999.90;999.90;;;;;;;12.85;48.84;99803.91;15340456;29;20151;-54
2021/04/29 01:07:31;;;;;;;1999.90;999.90;;;;;;;12.84;48.58;99804.28;15333488;29;20471;-59
2021/04/29 01:15:04;;;;;;;1999.90;999.90;;;;;;;12.79;48.43;99785.78;15307700;29;20059;-58
2021/04/29 01:22:41;;;;;;;1999.90;999.90;;;;;;;12.81;48.30;99793.81;15345486;29;20041;-57
2021/04/29 01:30:15;;;;;;;1999.90;999.90;;;;;;;13.04;48.15;99796.66;15347409;29;20136;-57
2021/04/29 01:37:48;;;;;;;1999.90;999.90;;;;;;;12.63;49.02;99782.28;15319020;29;20162;-54
2021/04/29 01:45:20;;;;;;;1999.90;999.90;;;;;;;12.73;48.57;99773.28;15319295;29;20138;-54
2021/04/29 01:52:52;;;;;;;1999.90;999.90;;;;;;;12.41;49.57;99767.06;15317175;29;20058;-54
2021/04/29 02:00:24;;;;;;;1999.90;999.90;;;;;;;12.33;49.63;99759.69;15349462;29;20102;-60
2021/04/29 02:07:57;;;;;;;1999.90;999.90;;;;;;;12.40;49.99;99754.22;15355010;29;20054;-57
2021/04/29 02:15:33;;;;;;;1999.90;999.90;;;;;;;12.41;49.58;99736.28;15347078;29;20174;-57
2021/04/29 02:23:09;;;;;;;1999.90;999.90;;;;;;;12.30;50.20;99726.88;15340455;29;20443;-55
2021/04/29 02:30:41;;;;;;;1999.90;999.90;;;;;;;12.28;51.01;99727.22;15356442;29;20105;-59
2021/04/29 02:38:15;;;;;;;1999.90;999.90;;;;;;;12.35;50.08;99718.16;15371302;29;20055;-55
2021/04/29 02:45:47;;;;;;;1999.90;999.90;;;;;;;12.25;50.40;99704.78;15335947;28;20543;-53
2021/04/29 02:53:20;;;;;;;1999.90;999.90;;;;;;;12.08;51.06;99712.41;15343097;29;20051;-54
2021/04/29 03:00:54;;;;;;;1999.90;999.90;;;;;;;12.08;50.46;99697.63;15351439;29;20047;-56
2021/04/29 03:08:25;;;;;;;1999.90;999.90;;;;;;;12.12;50.79;99693.75;15340453;28;20234;-53
2021/04/29 03:15:58;;;;;;;1999.90;999.90;;;;;;;12.18;50.89;99691.44;15341928;28;20086;-58
2021/04/29 03:23:29;;;;;;;1999.90;999.90;;;;;;;11.93;53.58;99687.34;15375593;23;20055;-63
2021/04/29 03:31:02;;;;;;;1999.90;999.90;;;;;;;12.38;53.61;99707.03;15374491;28;20472;-62
2021/04/29 03:38:34;;;;;;;1999.90;999.90;;;;;;;12.04;59.40;99694.78;15337184;29;20051;-61
2021/04/29 03:46:06;;;;;;;1999.90;999.90;;;;;;;12.11;62.18;99717.28;15356102;28;20084;-64
2021/04/29 03:53:38;;;;;;;1999.90;999.90;;;;;;;11.94;59.01;99700.94;15317474;29;20135;-61
2021/04/29 04:01:10;;;;;;;1999.90;999.90;;;;;;;11.37;66.44;99684.88;15326034;29;20043;-62
2021/04/29 04:08:41;;;;;;;1999.90;999.90;;;;;;;11.02;69.46;99682.81;15332648;29;20595;-63
2021/04/29 04:16:15;;;;;;;1999.90;999.90;;;;;;;11.51;66.17;99674.81;15367518;29;20051;-62
2021/04/29 04:23:46;;;;;;;1999.90;999.90;;;;;;;11.23;66.29;99690.91;15330780;29;20054;-62
2021/04/29 04:31:19;;;;;;;1999.90;999.90;;;;;;;11.59;64.89;99659.03;15330759;29;20046;-61
2021/04/29 04:38:50;;;;;;;1999.90;999.90;;;;;;;11.25;65.02;99666.22;15336586;29;20515;-63
2021/04/29 04:46:24;;;;;;;1999.90;999.90;;;;;;;11.69;64.40;99668.81;15333868;29;20055;-63
2021/04/29 04:53:55;;;;;;;;;;;;;;;11.93;61.57;99693.72;15327901;28;20128;-62
2021/04/29 05:01:32;;;;;;;1999.90;999.90;;;;;;;11.96;61.93;99709.75;15348290;29;20336;-64
2021/04/29 05:09:06;;;;;;;1999.90;999.90;;;;;;;12.13;61.25;99723.31;15332509;29;20079;-63
2021/04/29 05:16:39;;;;;;;1999.90;999.90;;;;;;;12.16;60.73;99707.78;15334473;29;20058;-64
2021/04/29 05:24:11;;;;;;;1999.90;999.90;;;;;;;12.50;62.16;99711.66;15326373;29;20043;-61
2021/04/29 05:31:44;;;;;;;1999.90;999.90;;;;;;;12.15;62.13;99706.16;15322342;29;20058;-61
2021/04/29 05:39:15;;;;;;;1999.90;999.90;;;;;;;12.07;62.59;99698.81;15343754;29;20052;-62
2021/04/29 05:46:49;;;;;;;1999.90;999.90;;;;;;;12.91;62.25;99689.63;15359714;29;20039;-61
2021/04/29 05:54:21;;;;;;;1999.90;999.90;;;;;;;12.55;65.18;99672.19;15380497;29;20104;-62
2021/04/29 06:01:53;;;;;;;1999.90;999.90;;;;;;;12.04;69.35;99680.78;15379355;29;20039;-64
2021/04/29 06:09:25;;;;;;;1999.90;999.90;;;;;;;11.95;69.87;99668.19;15345853;29;20063;-64
2021/04/29 06:16:58;;;;;;;1999.90;999.90;;;;;;;12.10;66.19;99670.13;15361457;29;20121;-64
2021/04/29 06:24:30;;;;;;;1999.90;999.90;;;;;;;11.93;67.46;99690.94;15345892;29;20047;-64
2021/04/29 06:32:03;;;;;;;1999.90;999.90;;;;;;;12.01;68.54;99684.31;15360843;29;20047;-64
2021/04/29 06:39:36;;;;;;;1999.90;999.90;;;;;;;11.65;70.48;99670.72;15378259;29;20102;-65
2021/04/29 06:47:09;;;;;;;1999.90;999.90;;;;;;;11.98;71.21;99657.09;15359854;29;20468;-65
2021/04/29 06:54:40;;;;;;;1999.90;999.90;;;;;;;11.70;73.13;99653.69;15344146;29;20520;-64
2021/04/29 07:02:13;;;;;;;1999.90;999.90;;;;;;;11.76;73.70;99655.00;15376823;29;20644;-64
2021/04/29 07:09:44;;;;;;;1999.90;999.90;;;;;;;11.69;74.19;99666.03;15359789;29;20078;-64
2021/04/29 07:17:17;;;;;;;1999.90;999.90;;;;;;;11.75;73.51;99673.75;15359026;28;20101;-63
2021/04/29 07:24:48;;;;;;;1999.90;999.90;;;;;;;11.75;74.21;99679.34;15375669;29;20047;-64
2021/04/29 07:32:21;;;;;;;1999.90;999.90;;;;;;;11.41;75.32;99667.00;15357960;29;20058;-64
2021/04/29 07:39:53;;;;;;;1999.90;999.90;;;;;;;11.52;75.29;99668.06;15357655;29;20078;-64
2021/04/29 07:47:25;;;;;;;1999.90;999.90;;;;;;;10.98;78.36;99659.59;15357840;29;20051;-65
2021/04/29 07:54:57;;;;;;;1999.90;999.90;;;;;;;11.24;78.00;99665.41;15359191;29;20564;-65
2021/04/29 08:02:29;;;;;;;1999.90;999.90;;;;;;;11.34;78.01;99658.44;15358102;29;20046;-65
2021/04/29 08:10:01;;;;;;;1999.90;999.90;;;;;;;11.14;79.39;99642.81;15374083;29;20396;-65
2021/04/29 08:17:33;;;;;;;1999.90;999.90;;;;;;;11.41;79.07;99636.28;15374053;29;20062;-64
2021/04/29 08:25:07;;;;;;;1999.90;999.90;;;;;;;11.64;77.88;99652.34;15356381;29;20053;-64
2021/04/29 08:32:39;;;;;;;1999.90;999.90;;;;;;;11.91;77.24;99656.16;15367291;29;20047;-65
2021/04/29 08:40:11;;;;;;;1999.90;999.90;;;;;;;12.55;75.62;99663.81;15367559;29;20062;-65
2021/04/29 08:47:49;;;;;;;1999.90;999.90;;;;;;;13.05;75.27;99647.88;15367248;29;20106;-63
2021/04/29 08:55:22;;;;;;;1999.90;999.90;;;;;;;13.47;74.07;99660.97;15383645;29;20046;-64
2021/04/29 09:02:55;;;;;;;;;;;;;;;13.49;74.26;99662.19;15384261;29;20126;-65
2021/04/29 09:10:30;;;;;;;1999.90;999.90;;;;;;;13.88;74.85;99658.31;15365426;28;19961;-65
2021/04/29 09:18:07;;;;;;;1999.90;999.90;;;;;;;15.52;70.36;99655.91;15350545;29;20425;-65
2021/04/29 09:25:52;;;;;;;1999.90;999.90;;;;;;;16.62;65.57;99655.59;15366262;29;20039;-65
2021/04/29 09:33:30;;;;;;;1999.90;999.90;;;;;;;17.31;63.68;99641.16;15365121;28;20043;-64
2021/04/29 09:41:06;;;;;;;1999.90;999.90;;;;;;;16.93;62.73;99644.78;15363371;28;20043;-64
2021/04/29 09:48:39;;;;;;;1999.90;999.90;;;;;;;17.09;62.24;99642.41;15380490;29;20143;-64
2021/04/29 09:56:13;;;;;;;1999.90;999.90;;;;;;;18.85;58.43;99640.53;15390400;29;20043;-64
2021/04/29 10:03:45;;;;;;;1999.90;999.90;;;;;;;17.27;63.41;99645.97;15395367;28;20044;-65
2021/04/29 10:11:21;;;;;;;1999.90;999.90;;;;;;;17.22;63.94;99656.88;15381103;28;20488;-65
2021/04/29 10:18:54;;;;;;;1999.90;999.90;;;;;;;17.61;63.53;99668.09;15362521;29;20083;-62
2021/04/29 10:26:28;;;;;;;1999.90;999.90;;;;;;;16.98;64.63;99670.53;15379822;28;20057;-65
2021/04/29 10:34:03;;;;;;;1999.90;999.90;;;;;;;18.34;60.36;99675.94;15360922;28;20181;-64
2021/04/29 10:41:35;;;;;;;1999.90;999.90;;;;;;;18.93;59.35;99687.31;15377368;28;20047;-64
2021/04/29 10:49:09;;;;;;;1999.90;999.90;;;;;;;19.88;54.14;99674.34;15376592;28;20389;-64
2021/04/29 10:56:42;;;;;;;1999.90;999.90;;;;;;;19.56;55.30;99682.38;15358496;29;20043;-64
2021/04/29 11:04:20;;;;;;;1999.90;999.90;;;;;;;17.49;60.17;99699.53;15358963;28;20041;-65
2021/04/29 11:12:02;;;;;;;1999.90;999.90;;;;;;;20.25;54.90;99701.06;15358850;28;20232;-64
2021/04/29 11:19:42;;;;;;;1999.90;999.90;;;;;;;22.59;46.15;99697.56;15375200;29;20047;-64
2021/04/29 11:27:19;;;;;;;1999.90;999.90;;;;;;;20.84;49.33;99694.19;15357204;29;20572;-64
2021/04/29 11:34:53;;;;;;;1999.90;999.90;;;;;;;19.52;50.58;99710.69;15374734;28;20368;-64
2021/04/29 11:42:27;;;;;;;1999.90;999.90;;;;;;;18.81;51.93;99711.22;15357213;28;20039;-63
2021/04/29 11:49:59;;;;;;;1999.90;999.90;;;;;;;19.49;51.66;99707.91;15356621;28;20564;-63
2021/04/29 11:57:31;;;;;;;1999.90;999.90;;;;;;;21.12;46.44;99710.00;15374359;29;20043;-64
2021/04/29 12:05:03;;;;;;;1999.90;999.90;;;;;;;21.22;45.43;99712.66;15373156;28;20055;-64
2021/04/29 12:12:35;;;;;;;1999.90;999.90;;;;;;;20.06;46.58;99715.84;15374088;28;20119;-64
2021/04/29 12:20:09;;;;;;;1999.90;999.90;;;;;;;20.34;47.65;99709.84;15373460;28;20051;-63
2021/04/29 12:27:41;;;;;;;1999.90;999.90;;;;;;;20.81;45.43;99710.03;15339612;29;20128;-61
2021/04/29 12:35:27;;;;;;;1999.90;999.90;;;;;;;19.63;46.99;99721.94;15355586;29;20047;-62
2021/04/29 12:43:10;;;;;;;1999.90;999.90;;;;;;;20.84;42.98;99719.72;15373375;28;20047;-62
2021/04/29 12:50:43;;;;;;;1999.90;999.90;;;;;;;20.43;44.06;99712.19;15339738;28;20055;-64
2021/04/29 12:58:23;;;;;;;1999.90;999.90;;;;;;;20.51;44.30;99722.19;15372182;29;20130;-62
2021/04/29 13:06:01;;;;;;;1999.90;999.90;;;;;;;20.39;44.35;99722.72;15355005;29;20070;-63
2021/04/29 13:13:33;;;;;;;1999.90;999.90;;;;;;;19.89;45.19;99726.13;15356196;28;20054;-62
2021/04/29 13:21:06;;;;;;;1999.90;999.90;;;;;;;19.37;45.80;99725.38;15349653;28;20429;-63
2021/04/29 13:28:37;;;;;;;1999.90;999.90;;;;;;;21.76;40.74;99734.47;15382420;29;20448;-63
2021/04/29 13:36:11;;;;;;;1999.90;999.90;;;;;;;21.04;41.73;99721.44;15348363;29;20170;-63
2021/04/29 13:43:42;;;;;;;1999.90;999.90;;;;;;;21.39;41.43;99710.81;15381347;28;20070;-63
2021/04/29 13:51:15;;;;;;;1999.90;999.90;;;;;;;21.13;43.86;99692.53;15348016;28;20050;-63
2021/04/29 13:58:47;;;;;;;1999.90;999.90;;;;;;;21.27;42.23;99700.06;15347758;29;20051;-63
2021/04/29 14:06:19;;;;;;;1999.90;999.90;;;;;;;21.30;42.34;99705.66;15346694;29;20059;-63
2021/04/29 14:13:53;;;;;;;1999.90;999.90;;;;;;;21.35;41.91;99681.66;15362268;28;20071;-63
2021/04/29 14:21:26;;;;;;;1999.90;999.90;;;;;;;21.12;41.85;99665.41;15366397;28;20521;-63
2021/04/29 14:28:57;;;;;;;1999.90;999.90;;;;;;;21.57;41.79;99653.72;15365627;28;20413;-63
2021/04/29 14:36:30;;;;;;;1999.90;999.90;;;;;;;21.28;40.28;99645.72;15323903;29;20665;-63
2021/04/29 14:44:01;;;;;;;1999.90;999.90;;;;;;;20.57;42.59;99646.03;15330453;29;20077;-62
2021/04/29 14:51:35;;;;;;;1999.90;999.90;;;;;;;19.85;43.57;99621.44;15354396;29;20090;-62
2021/04/29 14:59:07;;;;;;;1999.90;999.90;;;;;;;19.61;45.46;99721.56;15376187;29;20046;-62
2021/04/29 15:06:39;;;;;;;1999.90;999.90;;;;;;;14.88;63.98;99744.47;15338091;29;20047;-62
2021/04/29 15:14:13;;;;;;;1999.90;999.90;;;;;;;15.00;64.67;99747.81;15334332;28;20054;-62
2021/04/29 15:21:46;;;;;;;1999.90;999.90;;;;;;;15.60;66.52;99743.94;15373846;23;20053;-57
2021/04/29 15:29:18;;;;;;;1999.90;999.90;;;;;;;16.47;64.71;99740.44;15400156;28;20484;-53
2021/04/29 15:36:50;;;;;;;1999.90;999.90;;;;;;;16.69;62.62;99759.06;15399338;28;20054;-54
2021/04/29 15:44:23;;;;;;;1999.90;999.90;;;;;;;16.34;64.68;99771.72;15373413;28;20049;-56
2021/04/29 15:51:56;;;;;;;1999.90;999.90;;;;;;;16.43;63.28;99780.63;15408748;28;20167;-56
2021/04/29 15:59:28;;;;;;;1999.90;999.90;;;;;;;16.31;59.02;99783.78;15369360;28;20054;-52
2021/04/29 16:07:00;;;;;;;1999.90;999.90;;;;;;;16.05;60.08;99796.13;15377287;28;20057;-57
2021/04/29 16:14:31;;;;;;;1999.90;999.90;;;;;;;15.94;58.57;99797.22;15412792;28;20051;-58
2021/04/29 16:22:04;;;;;;;1999.90;999.90;;;;;;;15.65;57.17;99797.03;15344732;28;20129;-57
2021/04/29 16:29:35;;;;;;;1999.90;999.90;;;;;;;16.15;55.24;99798.19;15389033;28;20472;-58
2021/04/29 16:37:08;;;;;;;1999.90;999.90;;;;;;;15.87;55.24;99793.19;15371590;28;20063;-57
2021/04/29 16:44:39;;;;;;;1999.90;999.90;;;;;;;16.05;55.06;99786.88;15424404;28;20503;-60
2021/04/29 16:52:12;;;;;;;1999.90;999.90;;;;;;;15.72;55.69;99790.63;15387124;28;20062;-60
2021/04/29 16:59:44;;;;;;;1999.90;999.90;;;;;;;15.81;54.38;99791.13;15362927;28;20053;-59
2021/04/29 17:07:17;;;;;;;1999.90;999.90;;;;;;;15.86;55.18;99790.75;15403865;28;20050;-60
2021/04/29 17:14:49;;;;;;;1999.90;999.90;;;;;;;15.87;54.72;99803.63;15394517;28;20046;-58
2021/04/29 17:22:24;;;;;;;1999.90;999.90;;;;;;;15.78;55.51;99812.41;15403041;28;20043;-61
2021/04/29 17:29:55;;;;;;;1999.90;999.90;;;;;;;15.84;55.12;99798.78;15426656;28;20054;-59
2021/04/29 17:37:28;;;;;;;1999.90;999.90;;;;;;;15.80;55.38;99806.38;15385117;28;20047;-57
2021/04/29 17:44:59;;;;;;;1999.90;999.90;;;;;;;15.71;54.50;99815.13;15415066;28;20085;-56
2021/04/29 17:52:32;;;;;;;1999.90;999.90;;;;;;;15.60;55.78;99836.75;15431832;28;20125;-54
2021/04/29 18:00:05;;;;;;;1999.90;999.90;;;;;;;15.12;55.34;99841.47;15392284;28;20373;-60
2021/04/29 18:07:42;;;;;;;1999.90;999.90;;;;;;;15.15;56.69;99841.50;15400478;28;20038;-57
2021/04/29 18:15:16;;;;;;;1999.90;999.90;;;;;;;14.91;57.15;99862.50;15373786;28;20118;-57
2021/04/29 18:22:49;;;;;;;1999.90;999.90;;;;;;;14.62;57.96;99861.34;15399106;28;20545;-59
2021/04/29 18:30:23;;;;;;;1999.90;999.90;;;;;;;14.60;58.34;99886.19;15397983;28;20453;-57
2021/04/29 18:37:56;;;;;;;1999.90;999.90;;;;;;;14.37;57.50;99882.59;15378081;28;20050;-59
2021/04/29 18:45:32;;;;;;;1999.90;999.90;;;;;;;14.44;56.70;99899.53;15411958;28;20478;-57
2021/04/29 18:53:04;;;;;;;1999.90;999.90;;;;;;;14.55;53.98;99877.25;15395257;28;20043;-56
2021/04/29 19:00:40;;;;;;;1999.90;999.90;;;;;;;14.34;51.70;99884.16;15390877;28;20046;-57
2021/04/29 19:08:13;;;;;;;1999.90;999.90;;;;;;;14.44;52.53;99894.75;15389463;28;20053;-56
2021/04/29 19:15:45;;;;;;;1999.90;999.90;;;;;;;14.51;52.98;99896.88;15383518;28;20039;-53
2021/04/29 19:23:17;;;;;;;1999.90;999.90;;;;;;;14.33;54.04;99909.78;15375555;28;20529;-58
2021/04/29 19:30:49;;;;;;;1999.90;999.90;;;;;;;14.13;55.16;99926.72;15414275;28;20051;-58
2021/04/29 19:38:21;;;;;;;1999.90;999.90;;;;;;;14.05;55.67;99935.41;15383051;28;20054;-62
2021/04/29 19:45:54;;;;;;;1999.90;999.90;;;;;;;13.89;56.29;99932.75;15359339;28;20055;-59
2021/04/29 19:53:26;;;;;;;1999.90;999.90;;;;;;;13.64;57.33;99948.28;15379435;28;20048;-60
2021/04/29 20:00:58;;;;;;;1999.90;999.90;;;;;;;13.23;58.30;99967.50;15369218;28;20563;-56
2021/04/29 20:08:30;;;;;;;1999.90;999.90;;;;;;;13.14;58.69;99978.94;15361433;28;20054;-57
2021/04/29 20:16:03;;;;;;;1999.90;999.90;;;;;;;13.08;58.12;99971.19;15383930;28;20051;-59
2021/04/29 20:23:36;;;;;;;1999.90;999.90;;;;;;;12.79;58.43;99959.34;15408096;28;20443;-59
2021/04/29 20:31:08;;;;;;;1999.90;999.90;;;;;;;13.03;58.04;99971.47;15363332;28;20046;-59
2021/04/29 20:38:40;;;;;;;1999.90;999.90;;;;;;;13.01;58.16;99978.22;15393457;28;20126;-59
2021/04/29 20:46:13;;;;;;;1999.90;999.90;;;;;;;13.10;57.92;99982.81;15419034;28;20063;-60
2021/04/29 20:53:46;;;;;;;1999.90;999.90;;;;;;;12.95;58.28;99990.91;15352046;28;20451;-58
2021/04/29 21:01:17;;;;;;;1999.90;999.90;;;;;;;12.73;58.85;99999.22;15407801;28;20068;-57
2021/04/29 21:08:51;;;;;;;1999.90;999.90;;;;;;;12.67;58.74;99996.69;15414916;28;20404;-57
2021/04/29 21:16:22;;;;;;;1999.90;999.90;;;;;;;12.50;58.91;99999.06;15384595;28;20129;-56
2021/04/29 21:23:55;;;;;;;1999.90;999.90;;;;;;;12.31;59.09;100000.63;15402368;28;20656;-60
2021/04/29 21:31:27;;;;;;;1999.90;999.90;;;;;;;12.55;58.66;100012.78;15374569;28;20452;-60
2021/04/29 21:39:00;;;;;;;1999.90;999.90;;;;;;;12.32;59.57;100021.81;15378003;28;20422;-57
2021/04/29 21:46:34;;;;;;;1999.90;999.90;;;;;;;12.43;59.30;100030.50;15390604;28;20047;-57
2021/04/29 21:54:07;;;;;;;1999.90;999.90;;;;;;;12.23;59.84;100054.75;15365783;28;20134;-59
2021/04/29 22:01:38;;;;;;;1999.90;999.90;;;;;;;11.80;60.17;100050.00;15388075;28;20102;-58
2021/04/29 22:09:12;;;;;;;1999.90;999.90;;;;;;;12.17;59.10;100064.56;15406793;28;20126;-60
2021/04/29 22:16:43;;;;;;;1999.90;999.90;;;;;;;12.02;59.66;100082.97;15405938;28;20080;-56
2021/04/29 22:24:16;;;;;;;1999.90;999.90;;;;;;;11.81;60.19;100087.97;15424156;28;20392;-59
2021/04/29 22:31:47;;;;;;;1999.90;999.90;;;;;;;12.19;59.50;100104.19;15360284;28;20051;-59
2021/04/29 22:39:20;;;;;;;1999.90;999.90;;;;;;;11.84;60.28;100107.63;15403448;28;20308;-59
2021/04/29 22:46:56;;;;;;;1999.90;999.90;;;;;;;11.92;59.75;100125.44;15413224;28;20053;-59
2021/04/29 22:54:29;;;;;;;1999.90;999.90;;;;;;;11.96;59.76;100128.31;15413312;28;20550;-60
2021/04/29 23:02:00;;;;;;;1999.90;999.90;;;;;;;11.46;60.01;100141.63;15373986;28;20154;-57
2021/04/29 23:09:33;;;;;;;1999.90;999.90;;;;;;;11.56;59.25;100135.53;15371468;28;20183;-59
2021/04/29 23:17:04;;;;;;;1999.90;999.90;;;;;;;11.78;59.17;100150.16;15388403;28;20081;-58
2021/04/29 23:24:37;;;;;;;1999.90;999.90;;;;;;;11.37;60.26;100142.94;15367470;28;20358;-58
2021/04/29 23:32:09;;;;;;;1999.90;999.90;;;;;;;11.12;60.25;100158.88;15352041;28;20122;-57
2021/04/29 23:39:41;;;;;;;1999.90;999.90;;;;;;;11.10;59.30;100147.25;15364269;28;20404;-57
2021/04/29 23:47:13;;;;;;;1999.90;999.90;;;;;;;10.92;60.65;100160.63;15334901;28;20055;-57
2021/04/29 23:54:45;;;;;;;1999.90;999.90;;;;;;;10.63;60.77;100158.91;15376156;28;20058;-56
